createdAt,value
2019-01-18T00:00:53.556Z,4.00
2019-01-18T00:06:09.029Z,4.57
2019-01-18T00:11:24.916Z,9.77
2019-01-18T00:16:40.429Z,3.87
2019-01-18T00:21:56.133Z,3.87
2019-01-18T00:27:11.677Z,3.50
2019-01-18T00:32:27.201Z,4.97
2019-01-18T00:37:42.593Z,4.00
2019-01-18T00:42:57.948Z,4.20
2019-01-18T00:48:13.601Z,5.47
2019-01-18T00:53:29.430Z,6.80
2019-01-18T00:58:44.865Z,4.83
2019-01-18T01:04:00.370Z,6.67
2019-01-18T01:09:16.385Z,10.37
2019-01-18T01:14:33.057Z,8.30
2019-01-18T01:19:49.111Z,4.30
2019-01-18T01:25:04.786Z,5.03
2019-01-18T01:30:20.101Z,5.03
2019-01-18T01:35:36.052Z,5.57
2019-01-18T01:40:51.882Z,4.30
2019-01-18T01:46:07.982Z,4.30
2019-01-18T01:51:23.919Z,3.03
2019-01-18T01:56:39.929Z,4.93
2019-01-18T02:01:55.564Z,3.97
2019-01-18T02:07:11.346Z,6.00
2019-01-18T02:12:26.618Z,7.70
2019-01-18T02:17:42.249Z,3.50
2019-01-18T02:22:57.929Z,2.30
2019-01-18T02:28:13.702Z,6.97
2019-01-18T02:33:29.740Z,11.63
2019-01-18T02:38:45.317Z,2.60
2019-01-18T02:44:01.124Z,7.20
2019-01-18T02:49:16.929Z,4.20
2019-01-18T02:54:33.225Z,4.37
2019-01-18T02:59:48.625Z,6.77
2019-01-18T03:05:04.715Z,2.67
2019-01-18T03:10:20.141Z,5.07
2019-01-18T03:15:35.717Z,8.77
2019-01-18T03:20:51.415Z,5.37
2019-01-18T03:26:09.929Z,4.17
2019-01-18T03:31:25.745Z,4.90
2019-01-18T03:36:41.815Z,6.43
2019-01-18T03:41:57.462Z,5.27
2019-01-18T03:47:12.990Z,4.03
2019-01-18T03:52:29.208Z,2.73
2019-01-18T03:57:44.844Z,3.47
2019-01-18T04:03:00.425Z,5.30
2019-01-18T04:08:16.110Z,6.23
2019-01-18T04:13:31.940Z,3.80
2019-01-18T04:18:47.337Z,3.50
2019-01-18T04:24:03.365Z,4.57
2019-01-18T04:29:18.998Z,3.93
2019-01-18T04:34:34.417Z,5.47
2019-01-18T04:39:50.556Z,3.77
2019-01-18T04:45:06.165Z,6.20
2019-01-18T04:50:22.772Z,4.93
2019-01-18T04:55:39.122Z,4.80
2019-01-18T05:00:54.721Z,3.83
2019-01-18T05:06:10.691Z,6.90
2019-01-18T05:11:26.120Z,6.47
2019-01-18T05:16:41.710Z,5.37
2019-01-18T05:21:57.528Z,6.87
2019-01-18T05:32:34.250Z,4.53
2019-01-18T05:37:49.489Z,5.27
2019-01-18T05:43:05.097Z,5.40
2019-01-18T05:48:20.569Z,7.23
2019-01-18T05:53:36.669Z,11.50
2019-01-18T05:58:52.369Z,8.47
2019-01-18T06:04:07.937Z,7.63
2019-01-18T06:09:24.107Z,6.73
2019-01-18T06:14:39.829Z,7.00
2019-01-18T06:19:55.433Z,7.73
2019-01-18T06:25:10.767Z,8.43
2019-01-18T06:30:26.046Z,7.13
2019-01-18T06:35:41.529Z,5.87
2019-01-18T06:40:57.930Z,7.67
2019-01-18T06:46:13.229Z,9.10
2019-01-18T06:51:28.798Z,8.30
2019-01-18T06:56:44.465Z,8.23
2019-01-18T07:02:00.229Z,9.93
2019-01-18T07:07:15.632Z,8.73
2019-01-18T07:12:31.946Z,12.93
2019-01-18T07:17:47.671Z,9.50
2019-01-18T07:23:03.889Z,6.47
2019-01-18T07:28:20.037Z,6.03
2019-01-18T07:33:38.765Z,7.40
2019-01-18T07:38:42.184Z,8.97
2019-01-18T07:44:04.961Z,10.57
2019-01-18T07:49:27.730Z,11.67
2019-01-18T07:54:53.192Z,11.77
2019-01-18T08:00:36.917Z,11.20
2019-01-18T08:05:59.941Z,11.67
2019-01-18T08:11:22.946Z,14.60
2019-01-18T08:16:45.703Z,11.70
2019-01-18T08:22:08.465Z,12.57
2019-01-18T08:27:31.489Z,13.40
2019-01-18T08:32:54.256Z,16.00
2019-01-18T08:38:10.213Z,13.23
2019-01-18T08:43:26.437Z,13.17
2019-01-18T08:48:41.760Z,13.87
2019-01-18T08:53:57.270Z,15.60
2019-01-18T08:59:12.698Z,18.23
2019-01-18T09:04:28.629Z,16.63
2019-01-18T09:09:44.813Z,14.83
2019-01-18T09:15:00.306Z,19.10
2019-01-18T09:20:16.502Z,15.80
2019-01-18T09:25:31.687Z,14.37
2019-01-18T09:30:47.207Z,14.23
2019-01-18T09:36:03.157Z,18.63
2019-01-18T09:41:18.386Z,13.43
2019-01-18T09:46:33.773Z,15.60
2019-01-18T09:51:49.749Z,19.03
2019-01-18T09:57:05.504Z,12.87
2019-01-18T10:02:21.309Z,13.90
2019-01-18T10:07:37.078Z,13.00
2019-01-18T10:12:53.017Z,16.90
2019-01-18T10:18:09.277Z,9.70
2019-01-18T10:23:25.215Z,11.27
2019-01-18T10:28:40.978Z,13.53
2019-01-18T10:33:56.586Z,12.60
2019-01-18T10:39:12.938Z,11.33
2019-01-18T10:44:28.169Z,9.70
2019-01-18T10:49:43.930Z,8.57
2019-01-18T10:54:59.688Z,9.63
2019-01-18T11:00:14.878Z,8.97
2019-01-18T11:05:30.257Z,8.57
2019-01-18T11:10:45.813Z,7.53
2019-01-18T11:16:01.331Z,8.27
2019-01-18T11:21:17.062Z,10.50
2019-01-18T11:26:32.794Z,7.20
2019-01-18T11:31:48.885Z,4.47
2019-01-18T11:37:05.317Z,7.97
2019-01-18T11:42:20.749Z,6.10
2019-01-18T11:47:36.410Z,3.70
2019-01-18T11:52:51.906Z,5.20
2019-01-18T11:58:07.520Z,4.33
2019-01-18T12:03:23.289Z,8.07
2019-01-18T12:08:41.880Z,3.93
2019-01-18T12:13:56.493Z,4.83
2019-01-18T12:19:12.257Z,4.23
2019-01-18T12:24:28.034Z,3.80
2019-01-18T12:29:43.378Z,3.20
2019-01-18T12:34:59.145Z,4.37
2019-01-18T12:40:15.142Z,4.23
2019-01-18T12:45:30.601Z,2.83
2019-01-18T12:50:45.905Z,4.80
2019-01-18T12:56:01.609Z,3.87
2019-01-18T13:01:17.669Z,1.37
2019-01-18T13:06:33.233Z,3.63
2019-01-18T13:11:49.258Z,3.67
2019-01-18T13:17:04.839Z,2.40
2019-01-18T13:22:20.432Z,3.63
2019-01-18T13:27:35.877Z,2.93
2019-01-18T13:32:51.378Z,4.10
2019-01-18T13:38:07.434Z,2.03
2019-01-18T13:43:23.186Z,4.00
2019-01-18T13:48:39.238Z,3.33
2019-01-18T13:53:55.175Z,5.10
2019-01-18T13:59:11.473Z,3.60
2019-01-18T14:04:27.738Z,4.03
2019-01-18T14:09:43.105Z,4.10
2019-01-18T14:14:58.789Z,3.67
2019-01-18T14:20:14.305Z,4.20
2019-01-18T14:25:29.574Z,3.17
2019-01-18T14:30:45.316Z,3.07
2019-01-18T14:36:01.234Z,3.63
2019-01-18T14:41:16.585Z,4.67
2019-01-18T14:46:33.145Z,3.07
2019-01-18T14:51:48.842Z,2.17
2019-01-18T14:57:04.223Z,4.43
2019-01-18T15:02:19.752Z,2.17
2019-01-18T15:07:37.109Z,2.50
2019-01-18T15:12:52.748Z,4.07
2019-01-18T15:18:08.338Z,5.57
2019-01-18T15:23:24.449Z,2.10
2019-01-18T15:28:40.574Z,1.30
2019-01-18T15:33:44.036Z,2.53
2019-01-18T15:38:59.609Z,4.07
2019-01-18T15:44:15.755Z,5.30
2019-01-18T15:49:31.845Z,3.30
2019-01-18T15:54:47.400Z,4.50
2019-01-18T16:00:03.081Z,2.80
2019-01-18T16:05:18.857Z,6.50
2019-01-18T16:10:34.157Z,3.20
2019-01-18T16:15:49.382Z,6.33
2019-01-18T16:21:04.938Z,6.23
2019-01-18T16:26:20.493Z,5.47
2019-01-18T16:31:36.041Z,13.80
2019-01-18T16:36:51.548Z,7.93
2019-01-18T16:42:07.433Z,8.07
2019-01-18T16:47:23.079Z,11.30
2019-01-18T16:52:38.786Z,13.50
2019-01-18T16:57:54.141Z,7.13
2019-01-18T17:03:10.218Z,8.23
2019-01-18T17:08:26.125Z,7.33
2019-01-18T17:13:41.657Z,9.23
2019-01-18T17:18:57.871Z,15.00
2019-01-18T17:24:13.985Z,16.60
2019-01-18T17:29:29.670Z,9.83
2019-01-18T17:34:45.021Z,8.33
2019-01-18T17:40:00.454Z,8.33
2019-01-18T17:45:15.950Z,6.70
2019-01-18T17:50:31.616Z,14.27
2019-01-18T17:55:46.864Z,9.70
2019-01-18T18:01:02.641Z,13.10
2019-01-18T18:06:18.941Z,11.23
2019-01-18T18:11:35.210Z,16.87
2019-01-18T18:16:50.523Z,8.53
2019-01-18T18:22:05.972Z,25.03
2019-01-18T18:27:21.429Z,10.80
2019-01-18T18:32:37.238Z,11.73
2019-01-18T18:37:52.629Z,10.87
2019-01-18T18:43:08.125Z,12.17
2019-01-18T18:48:23.979Z,14.13
2019-01-18T18:53:41.156Z,14.83
2019-01-18T18:58:56.873Z,10.07
2019-01-18T19:04:12.486Z,10.97
2019-01-18T19:09:28.482Z,9.87
2019-01-18T19:14:44.762Z,10.00
2019-01-18T19:25:41.173Z,9.53
2019-01-18T19:30:57.023Z,10.97
2019-01-18T19:36:16.514Z,11.07
2019-01-18T19:41:32.213Z,13.37
2019-01-18T19:46:51.567Z,10.33
2019-01-18T19:52:07.712Z,10.27
2019-01-18T20:02:48.474Z,14.13
2019-01-18T20:08:04.089Z,11.67
2019-01-18T20:13:24.692Z,11.93
2019-01-18T20:18:40.702Z,12.67
2019-01-18T20:23:55.981Z,12.63
2019-01-18T20:29:11.957Z,14.47
2019-01-18T20:34:30.867Z,14.13
2019-01-18T20:45:17.989Z,12.77
2019-01-18T20:50:33.703Z,14.30
2019-01-18T20:55:49.219Z,14.27
2019-01-18T21:01:04.725Z,15.30
2019-01-18T21:06:20.370Z,13.80
2019-01-18T21:11:36.206Z,12.37
2019-01-18T21:16:51.694Z,14.80
2019-01-18T21:22:07.341Z,11.57
2019-01-18T21:27:23.710Z,11.37
2019-01-18T21:32:39.400Z,11.80
2019-01-18T21:43:30.926Z,10.87
2019-01-18T21:48:53.604Z,11.37
2019-01-18T21:54:06.509Z,12.83
2019-01-18T21:59:22.556Z,13.97
2019-01-18T22:04:40.653Z,13.87
2019-01-18T22:09:55.673Z,11.40
2019-01-18T22:20:32.570Z,12.77
2019-01-18T22:25:48.224Z,13.00
2019-01-18T22:36:24.853Z,12.20
2019-01-18T22:41:41.236Z,12.83
2019-01-18T22:46:57.067Z,12.40
2019-01-18T22:52:13.304Z,11.83
2019-01-18T22:57:28.753Z,12.87
2019-01-18T23:02:48.134Z,12.70
2019-01-18T23:08:04.185Z,11.17
2019-01-18T23:13:19.671Z,12.60
2019-01-18T23:18:38.595Z,12.10
2019-01-18T23:23:54.725Z,10.47
2019-01-18T23:29:10.161Z,11.70
2019-01-18T23:34:33.650Z,11.23
2019-01-18T23:39:47.570Z,13.30
2019-01-18T23:45:03.176Z,12.73
2019-01-18T23:50:18.690Z,11.40
2019-01-18T23:55:35.043Z,14.30
